sensor_id;sensor_type;location;lat;lon;timestamp;pressure;altitude;pressure_sealevel;temperature;humidity
8061;BME280;4073;42.626;25.386;2023-02-14T00:00:04;98518.41;;;0.70;87.69
8061;BME280;4073;42.626;25.386;2023-02-14T00:02:30;98508.06;;;0.68;87.73
8061;BME280;4073;42.626;25.386;2023-02-14T00:04:55;98520.81;;;0.79;87.53
8061;BME280;4073;42.626;25.386;2023-02-14T00:07:21;98519.22;;;0.70;87.43
8061;BME280;4073;42.626;25.386;2023-02-14T00:09:46;98516.25;;;0.73;87.45
8061;BME280;4073;42.626;25.386;2023-02-14T00:12:12;98509.34;;;0.72;87.10
8061;BME280;4073;42.626;25.386;2023-02-14T00:14:37;98512.50;;;0.68;86.91
8061;BME280;4073;42.626;25.386;2023-02-14T00:17:21;98508.59;;;0.64;87.95
8061;BME280;4073;42.626;25.386;2023-02-14T00:19:46;98520.09;;;0.63;88.68
8061;BME280;4073;42.626;25.386;2023-02-14T00:22:12;98512.75;;;0.58;88.34
8061;BME280;4073;42.626;25.386;2023-02-14T00:24:38;98519.75;;;0.66;88.43
8061;BME280;4073;42.626;25.386;2023-02-14T00:27:03;98512.38;;;0.61;87.66
8061;BME280;4073;42.626;25.386;2023-02-14T00:29:30;98508.94;;;0.61;88.57
8061;BME280;4073;42.626;25.386;2023-02-14T00:31:56;98501.75;;;0.55;88.89
8061;BME280;4073;42.626;25.386;2023-02-14T00:34:22;98501.56;;;0.56;88.97
8061;BME280;4073;42.626;25.386;2023-02-14T00:36:47;98504.09;;;0.50;88.96
8061;BME280;4073;42.626;25.386;2023-02-14T00:39:13;98490.94;;;0.50;88.77
8061;BME280;4073;42.626;25.386;2023-02-14T00:41:40;98493.03;;;0.54;89.20
8061;BME280;4073;42.626;25.386;2023-02-14T00:44:07;98487.59;;;0.56;89.29
8061;BME280;4073;42.626;25.386;2023-02-14T00:46:33;98491.16;;;0.63;88.73
8061;BME280;4073;42.626;25.386;2023-02-14T00:48:58;98483.25;;;0.63;88.65
8061;BME280;4073;42.626;25.386;2023-02-14T00:51:24;98473.56;;;0.63;88.69
8061;BME280;4073;42.626;25.386;2023-02-14T00:53:50;98459.13;;;0.59;88.89
8061;BME280;4073;42.626;25.386;2023-02-14T00:56:16;98454.88;;;0.58;89.54
8061;BME280;4073;42.626;25.386;2023-02-14T00:58:43;98451.75;;;0.55;89.60
8061;BME280;4073;42.626;25.386;2023-02-14T01:01:09;98436.88;;;0.62;90.15
8061;BME280;4073;42.626;25.386;2023-02-14T01:03:35;98456.19;;;0.54;90.36
8061;BME280;4073;42.626;25.386;2023-02-14T01:06:00;98443.34;;;0.59;90.08
8061;BME280;4073;42.626;25.386;2023-02-14T01:08:26;98447.78;;;0.59;89.90
8061;BME280;4073;42.626;25.386;2023-02-14T01:10:52;98456.13;;;0.62;90.02
8061;BME280;4073;42.626;25.386;2023-02-14T01:13:18;98462.19;;;0.63;89.95
8061;BME280;4073;42.626;25.386;2023-02-14T01:15:47;98457.59;;;0.65;90.20
8061;BME280;4073;42.626;25.386;2023-02-14T01:18:14;98443.44;;;0.66;89.55
8061;BME280;4073;42.626;25.386;2023-02-14T01:20:40;98449.34;;;0.68;88.86
8061;BME280;4073;42.626;25.386;2023-02-14T01:23:06;98443.16;;;0.61;89.04
8061;BME280;4073;42.626;25.386;2023-02-14T01:25:32;98445.78;;;0.61;88.82
8061;BME280;4073;42.626;25.386;2023-02-14T01:27:57;98432.88;;;0.51;88.29
8061;BME280;4073;42.626;25.386;2023-02-14T01:30:23;98434.06;;;0.26;88.61
8061;BME280;4073;42.626;25.386;2023-02-14T01:32:48;98416.44;;;0.12;88.76
8061;BME280;4073;42.626;25.386;2023-02-14T01:35:14;98430.44;;;0.04;88.40
8061;BME280;4073;42.626;25.386;2023-02-14T01:37:40;98432.88;;;-0.17;89.11
8061;BME280;4073;42.626;25.386;2023-02-14T01:40:07;98429.84;;;-0.28;90.99
8061;BME280;4073;42.626;25.386;2023-02-14T01:42:33;98435.59;;;-0.33;91.53
8061;BME280;4073;42.626;25.386;2023-02-14T01:45:06;98445.16;;;-0.40;92.05
8061;BME280;4073;42.626;25.386;2023-02-14T01:47:38;98445.03;;;-0.46;93.10
8061;BME280;4073;42.626;25.386;2023-02-14T01:50:17;98432.41;;;-0.51;93.12
8061;BME280;4073;42.626;25.386;2023-02-14T01:52:49;98422.84;;;-0.44;93.49
8061;BME280;4073;42.626;25.386;2023-02-14T01:55:19;98402.75;;;-0.59;93.58
8061;BME280;4073;42.626;25.386;2023-02-14T01:57:53;98415.66;;;-0.50;94.32
8061;BME280;4073;42.626;25.386;2023-02-14T02:00:21;98410.56;;;-0.43;94.11
8061;BME280;4073;42.626;25.386;2023-02-14T02:03:06;98416.91;;;-0.38;94.02
8061;BME280;4073;42.626;25.386;2023-02-14T02:05:34;98416.66;;;-0.51;93.66
8061;BME280;4073;42.626;25.386;2023-02-14T02:08:01;98406.94;;;-0.42;93.95
8061;BME280;4073;42.626;25.386;2023-02-14T02:10:27;98409.31;;;-0.33;94.25
8061;BME280;4073;42.626;25.386;2023-02-14T02:12:53;98412.22;;;-0.50;94.82
8061;BME280;4073;42.626;25.386;2023-02-14T02:15:22;98407.41;;;-0.39;95.09
8061;BME280;4073;42.626;25.386;2023-02-14T02:36:58;98382.88;;;-0.31;92.49
8061;BME280;4073;42.626;25.386;2023-02-14T02:39:44;98377.00;;;-0.33;92.76
8061;BME280;4073;42.626;25.386;2023-02-14T02:42:34;98379.78;;;-0.35;92.57
8061;BME280;4073;42.626;25.386;2023-02-14T02:45:12;98369.81;;;-0.39;92.95
8061;BME280;4073;42.626;25.386;2023-02-14T02:48:15;98353.78;;;-0.52;93.20
8061;BME280;4073;42.626;25.386;2023-02-14T02:50:48;98366.28;;;-0.54;93.36
8061;BME280;4073;42.626;25.386;2023-02-14T02:54:00;98362.50;;;-0.52;93.79
8061;BME280;4073;42.626;25.386;2023-02-14T02:56:33;98362.16;;;-0.49;93.32
8061;BME280;4073;42.626;25.386;2023-02-14T03:02:06;98372.78;;;-0.42;93.06
8061;BME280;4073;42.626;25.386;2023-02-14T03:04:38;98360.31;;;-0.48;93.08
8061;BME280;4073;42.626;25.386;2023-02-14T03:07:19;98348.09;;;-0.64;93.27
8061;BME280;4073;42.626;25.386;2023-02-14T03:24:02;98352.38;;;-0.93;94.98
8061;BME280;4073;42.626;25.386;2023-02-14T03:26:42;98354.31;;;-0.87;93.90
8061;BME280;4073;42.626;25.386;2023-02-14T03:29:18;98362.31;;;-0.81;94.17
8061;BME280;4073;42.626;25.386;2023-02-14T03:32:02;98354.59;;;-0.82;93.47
8061;BME280;4073;42.626;25.386;2023-02-14T03:34:35;98358.09;;;-0.90;93.91
8061;BME280;4073;42.626;25.386;2023-02-14T03:39:38;98334.84;;;-1.01;94.01
8061;BME280;4073;42.626;25.386;2023-02-14T03:42:10;98331.38;;;-0.93;94.28
8061;BME280;4073;42.626;25.386;2023-02-14T03:44:38;98327.63;;;-0.99;93.92
8061;BME280;4073;42.626;25.386;2023-02-14T03:47:07;98332.88;;;-0.99;94.73
8061;BME280;4073;42.626;25.386;2023-02-14T03:49:37;98334.31;;;-0.96;94.07
8061;BME280;4073;42.626;25.386;2023-02-14T03:52:06;98329.13;;;-1.04;94.80
8061;BME280;4073;42.626;25.386;2023-02-14T03:54:34;98328.78;;;-1.01;94.81
8061;BME280;4073;42.626;25.386;2023-02-14T03:57:22;98319.75;;;-0.99;94.77
8061;BME280;4073;42.626;25.386;2023-02-14T03:59:49;98314.50;;;-0.99;94.37
8061;BME280;4073;42.626;25.386;2023-02-14T04:02:45;98312.69;;;-0.98;94.00
8061;BME280;4073;42.626;25.386;2023-02-14T04:05:18;98306.50;;;-1.05;94.49
8061;BME280;4073;42.626;25.386;2023-02-14T04:07:47;98307.63;;;-1.00;94.87
8061;BME280;4073;42.626;25.386;2023-02-14T04:10:14;98311.69;;;-0.97;94.97
8061;BME280;4073;42.626;25.386;2023-02-14T04:12:40;98297.31;;;-1.09;95.76
8061;BME280;4073;42.626;25.386;2023-02-14T04:15:06;98305.34;;;-1.03;95.08
8061;BME280;4073;42.626;25.386;2023-02-14T04:17:32;98311.44;;;-1.10;95.35
8061;BME280;4073;42.626;25.386;2023-02-14T04:20:16;98312.72;;;-1.06;95.20
8061;BME280;4073;42.626;25.386;2023-02-14T04:22:41;98307.19;;;-1.11;95.11
8061;BME280;4073;42.626;25.386;2023-02-14T04:25:07;98301.47;;;-1.23;95.45
8061;BME280;4073;42.626;25.386;2023-02-14T04:27:32;98303.09;;;-1.22;95.79
8061;BME280;4073;42.626;25.386;2023-02-14T04:29:57;98297.56;;;-1.27;96.47
8061;BME280;4073;42.626;25.386;2023-02-14T04:32:23;98292.44;;;-1.20;97.10
8061;BME280;4073;42.626;25.386;2023-02-14T04:34:49;98290.47;;;-1.18;96.45
8061;BME280;4073;42.626;25.386;2023-02-14T04:37:16;98284.41;;;-1.19;96.50
8061;BME280;4073;42.626;25.386;2023-02-14T04:39:42;98274.41;;;-1.15;96.23
8061;BME280;4073;42.626;25.386;2023-02-14T04:42:08;98277.88;;;-1.23;96.59
8061;BME280;4073;42.626;25.386;2023-02-14T04:44:33;98277.03;;;-1.15;97.17
8061;BME280;4073;42.626;25.386;2023-02-14T04:46:59;98281.72;;;-1.11;96.45
8061;BME280;4073;42.626;25.386;2023-02-14T04:49:25;98274.00;;;-1.04;96.21
8061;BME280;4073;42.626;25.386;2023-02-14T04:51:50;98283.50;;;-1.03;95.37
8061;BME280;4073;42.626;25.386;2023-02-14T04:54:16;98289.31;;;-1.16;95.00
8061;BME280;4073;42.626;25.386;2023-02-14T04:56:41;98292.78;;;-1.15;95.46
8061;BME280;4073;42.626;25.386;2023-02-14T04:59:07;98296.06;;;-1.21;95.98
8061;BME280;4073;42.626;25.386;2023-02-14T05:01:32;98302.94;;;-1.20;96.15
8061;BME280;4073;42.626;25.386;2023-02-14T05:03:58;98300.09;;;-1.11;95.79
8061;BME280;4073;42.626;25.386;2023-02-14T05:06:23;98301.94;;;-1.11;96.08
8061;BME280;4073;42.626;25.386;2023-02-14T05:08:49;98307.84;;;-1.17;96.26
8061;BME280;4073;42.626;25.386;2023-02-14T05:11:14;98302.94;;;-1.20;97.12
8061;BME280;4073;42.626;25.386;2023-02-14T05:13:39;98295.41;;;-1.15;97.38
8061;BME280;4073;42.626;25.386;2023-02-14T05:16:05;98306.34;;;-1.12;97.01
8061;BME280;4073;42.626;25.386;2023-02-14T05:18:30;98296.53;;;-1.18;98.64
8061;BME280;4073;42.626;25.386;2023-02-14T05:20:56;98292.53;;;-1.06;99.22
8061;BME280;4073;42.626;25.386;2023-02-14T05:23:21;98294.78;;;-0.95;100.00
8061;BME280;4073;42.626;25.386;2023-02-14T05:25:48;98287.50;;;-0.85;99.17
8061;BME280;4073;42.626;25.386;2023-02-14T05:28:14;98288.53;;;-0.63;100.00
8061;BME280;4073;42.626;25.386;2023-02-14T05:30:39;98279.59;;;-0.54;100.00
8061;BME280;4073;42.626;25.386;2023-02-14T05:33:05;98276.91;;;-0.46;100.00
8061;BME280;4073;42.626;25.386;2023-02-14T05:35:30;98276.25;;;-0.48;100.00
8061;BME280;4073;42.626;25.386;2023-02-14T05:37:56;98278.53;;;-0.45;100.00
8061;BME280;4073;42.626;25.386;2023-02-14T05:40:23;98261.41;;;-0.56;100.00
8061;BME280;4073;42.626;25.386;2023-02-14T05:42:50;98270.56;;;-0.52;100.00
8061;BME280;4073;42.626;25.386;2023-02-14T05:45:16;98288.47;;;-0.10;100.00
8061;BME280;4073;42.626;25.386;2023-02-14T05:47:41;98294.22;;;0.52;100.00
8061;BME280;4073;42.626;25.386;2023-02-14T05:50:07;98286.72;;;1.28;97.60
8061;BME280;4073;42.626;25.386;2023-02-14T05:52:33;98283.63;;;1.87;90.15
8061;BME280;4073;42.626;25.386;2023-02-14T05:54:59;98278.38;;;2.42;87.42
8061;BME280;4073;42.626;25.386;2023-02-14T05:57:24;98288.03;;;3.04;81.67
8061;BME280;4073;42.626;25.386;2023-02-14T05:59:50;98284.25;;;3.19;79.33
8061;BME280;4073;42.626;25.386;2023-02-14T06:02:15;98281.13;;;3.82;76.71
8061;BME280;4073;42.626;25.386;2023-02-14T06:04:41;98281.72;;;4.43;74.66
8061;BME280;4073;42.626;25.386;2023-02-14T06:07:07;98292.97;;;5.53;69.72
8061;BME280;4073;42.626;25.386;2023-02-14T06:09:32;98258.94;;;6.72;63.15
8061;BME280;4073;42.626;25.386;2023-02-14T06:11:58;98283.69;;;7.56;61.56
8061;BME280;4073;42.626;25.386;2023-02-14T06:14:23;98282.91;;;7.56;60.57
8061;BME280;4073;42.626;25.386;2023-02-14T06:16:49;98272.56;;;8.30;58.40
8061;BME280;4073;42.626;25.386;2023-02-14T06:19:15;98278.03;;;8.35;57.80
8061;BME280;4073;42.626;25.386;2023-02-14T06:21:40;98286.13;;;8.40;57.60
8061;BME280;4073;42.626;25.386;2023-02-14T06:24:06;98283.44;;;8.98;54.53
8061;BME280;4073;42.626;25.386;2023-02-14T06:26:31;98296.16;;;9.19;53.45
8061;BME280;4073;42.626;25.386;2023-02-14T06:28:57;98275.19;;;10.39;53.22
8061;BME280;4073;42.626;25.386;2023-02-14T06:31:24;98281.50;;;11.26;49.76
8061;BME280;4073;42.626;25.386;2023-02-14T06:33:51;98279.50;;;10.95;51.46
8061;BME280;4073;42.626;25.386;2023-02-14T06:36:17;98265.13;;;11.44;50.41
8061;BME280;4073;42.626;25.386;2023-02-14T06:38:43;98272.06;;;11.88;46.43
8061;BME280;4073;42.626;25.386;2023-02-14T06:41:09;98274.78;;;11.67;49.35
8061;BME280;4073;42.626;25.386;2023-02-14T06:43:36;98281.13;;;12.82;44.17
8061;BME280;4073;42.626;25.386;2023-02-14T06:46:02;98278.41;;;13.85;42.05
8061;BME280;4073;42.626;25.386;2023-02-14T06:48:27;98269.34;;;14.76;38.97
8061;BME280;4073;42.626;25.386;2023-02-14T06:50:53;98263.09;;;14.96;40.17
8061;BME280;4073;42.626;25.386;2023-02-14T06:53:19;98257.66;;;15.75;35.23
8061;BME280;4073;42.626;25.386;2023-02-14T06:55:45;98246.94;;;16.42;34.56
8061;BME280;4073;42.626;25.386;2023-02-14T06:58:11;98267.34;;;17.15;33.42
8061;BME280;4073;42.626;25.386;2023-02-14T07:00:37;98265.44;;;17.39;33.00
8061;BME280;4073;42.626;25.386;2023-02-14T07:03:04;98268.66;;;17.64;32.85
8061;BME280;4073;42.626;25.386;2023-02-14T07:05:30;98258.38;;;18.41;31.28
8061;BME280;4073;42.626;25.386;2023-02-14T07:07:56;98249.38;;;18.91;30.67
8061;BME280;4073;42.626;25.386;2023-02-14T07:10:21;98243.38;;;18.62;32.16
8061;BME280;4073;42.626;25.386;2023-02-14T07:12:47;98258.38;;;19.32;30.61
8061;BME280;4073;42.626;25.386;2023-02-14T07:15:12;98255.69;;;20.74;27.92
8061;BME280;4073;42.626;25.386;2023-02-14T07:17:38;98262.09;;;20.12;29.06
8061;BME280;4073;42.626;25.386;2023-02-14T07:20:09;98256.59;;;19.09;30.74
8061;BME280;4073;42.626;25.386;2023-02-14T07:22:35;98236.66;;;19.59;31.05
8061;BME280;4073;42.626;25.386;2023-02-14T07:25:01;98259.94;;;20.22;29.24
8061;BME280;4073;42.626;25.386;2023-02-14T07:27:26;98262.66;;;19.60;30.24
8061;BME280;4073;42.626;25.386;2023-02-14T07:29:52;98251.53;;;19.48;29.98
8061;BME280;4073;42.626;25.386;2023-02-14T07:32:17;98244.91;;;17.98;31.12
8061;BME280;4073;42.626;25.386;2023-02-14T07:34:43;98244.88;;;16.67;31.91
8061;BME280;4073;42.626;25.386;2023-02-14T07:37:08;98253.63;;;16.54;32.84
8061;BME280;4073;42.626;25.386;2023-02-14T07:39:33;98252.47;;;15.44;33.30
8061;BME280;4073;42.626;25.386;2023-02-14T07:41:59;98241.72;;;15.83;33.97
8061;BME280;4073;42.626;25.386;2023-02-14T07:44:24;98247.53;;;16.00;33.78
8061;BME280;4073;42.626;25.386;2023-02-14T07:46:50;98262.47;;;15.39;33.81
8061;BME280;4073;42.626;25.386;2023-02-14T07:49:15;98260.78;;;15.53;34.66
8061;BME280;4073;42.626;25.386;2023-02-14T07:51:41;98257.72;;;15.70;34.15
8061;BME280;4073;42.626;25.386;2023-02-14T07:54:06;98244.59;;;16.69;33.03
8061;BME280;4073;42.626;25.386;2023-02-14T07:56:32;98260.03;;;17.81;31.08
8061;BME280;4073;42.626;25.386;2023-02-14T07:58:58;98257.91;;;18.34;29.84
8061;BME280;4073;42.626;25.386;2023-02-14T08:01:23;98266.66;;;19.22;28.78
8061;BME280;4073;42.626;25.386;2023-02-14T08:03:49;98265.22;;;18.97;27.66
8061;BME280;4073;42.626;25.386;2023-02-14T08:06:17;98267.72;;;18.48;28.16
8061;BME280;4073;42.626;25.386;2023-02-14T08:08:43;98269.44;;;18.58;27.97
8061;BME280;4073;42.626;25.386;2023-02-14T08:11:09;98274.59;;;18.41;28.68
8061;BME280;4073;42.626;25.386;2023-02-14T08:13:36;98265.41;;;18.87;28.29
8061;BME280;4073;42.626;25.386;2023-02-14T08:16:02;98257.91;;;18.34;29.20
8061;BME280;4073;42.626;25.386;2023-02-14T08:18:36;98246.16;;;18.25;27.82
8061;BME280;4073;42.626;25.386;2023-02-14T08:21:02;98251.53;;;17.50;28.85
8061;BME280;4073;42.626;25.386;2023-02-14T08:23:29;98250.59;;;16.89;29.74
8061;BME280;4073;42.626;25.386;2023-02-14T08:25:55;98237.84;;;17.18;29.85
8061;BME280;4073;42.626;25.386;2023-02-14T08:28:21;98239.84;;;16.56;30.00
8061;BME280;4073;42.626;25.386;2023-02-14T08:30:47;98237.00;;;16.99;30.62
8061;BME280;4073;42.626;25.386;2023-02-14T08:33:12;98237.91;;;17.60;29.22
8061;BME280;4073;42.626;25.386;2023-02-14T08:35:38;98230.91;;;17.12;29.30
8061;BME280;4073;42.626;25.386;2023-02-14T08:38:04;98235.38;;;17.22;29.46
8061;BME280;4073;42.626;25.386;2023-02-14T08:40:29;98232.50;;;16.61;30.11
8061;BME280;4073;42.626;25.386;2023-02-14T08:42:55;98241.22;;;16.53;30.61
8061;BME280;4073;42.626;25.386;2023-02-14T08:45:21;98236.41;;;17.26;29.47
8061;BME280;4073;42.626;25.386;2023-02-14T08:47:46;98235.63;;;18.05;28.15
8061;BME280;4073;42.626;25.386;2023-02-14T08:50:14;98218.84;;;18.40;27.69
8061;BME280;4073;42.626;25.386;2023-02-14T08:52:41;98223.53;;;18.66;27.06
8061;BME280;4073;42.626;25.386;2023-02-14T08:55:08;98232.78;;;17.59;27.86
8061;BME280;4073;42.626;25.386;2023-02-14T08:57:34;98223.47;;;16.99;28.87
8061;BME280;4073;42.626;25.386;2023-02-14T08:59:59;98225.25;;;15.85;30.29
8061;BME280;4073;42.626;25.386;2023-02-14T09:02:25;98221.41;;;16.34;30.45
8061;BME280;4073;42.626;25.386;2023-02-14T09:04:50;98234.19;;;17.09;29.23
8061;BME280;4073;42.626;25.386;2023-02-14T09:07:16;98207.06;;;18.31;28.04
8061;BME280;4073;42.626;25.386;2023-02-14T09:09:41;98237.09;;;17.97;27.96
8061;BME280;4073;42.626;25.386;2023-02-14T09:12:08;98235.94;;;17.66;27.66
8061;BME280;4073;42.626;25.386;2023-02-14T09:14:38;98244.31;;;17.64;28.40
8061;BME280;4073;42.626;25.386;2023-02-14T09:17:06;98216.16;;;17.00;28.60
8061;BME280;4073;42.626;25.386;2023-02-14T09:19:36;98213.66;;;16.23;30.13
8061;BME280;4073;42.626;25.386;2023-02-14T09:22:03;98236.28;;;16.60;30.08
8061;BME280;4073;42.626;25.386;2023-02-14T09:24:30;98236.38;;;16.50;29.85
8061;BME280;4073;42.626;25.386;2023-02-14T09:26:56;98248.94;;;16.65;29.97
8061;BME280;4073;42.626;25.386;2023-02-14T09:29:26;98229.97;;;16.70;29.53
8061;BME280;4073;42.626;25.386;2023-02-14T09:31:57;98241.69;;;16.27;30.06
8061;BME280;4073;42.626;25.386;2023-02-14T09:34:24;98252.69;;;16.69;30.04
8061;BME280;4073;42.626;25.386;2023-02-14T09:36:50;98235.25;;;16.23;30.57
8061;BME280;4073;42.626;25.386;2023-02-14T09:39:15;98242.78;;;16.88;29.53
8061;BME280;4073;42.626;25.386;2023-02-14T09:44:50;98235.16;;;16.66;29.83
8061;BME280;4073;42.626;25.386;2023-02-14T09:47:35;98234.44;;;16.56;29.65
8061;BME280;4073;42.626;25.386;2023-02-14T09:50:09;98224.94;;;16.30;30.75
8061;BME280;4073;42.626;25.386;2023-02-14T09:52:38;98230.56;;;16.95;29.34
8061;BME280;4073;42.626;25.386;2023-02-14T09:55:11;98215.38;;;17.46;29.46
8061;BME280;4073;42.626;25.386;2023-02-14T09:57:48;98213.97;;;16.78;29.31
8061;BME280;4073;42.626;25.386;2023-02-14T10:03:00;98208.00;;;17.05;29.66
8061;BME280;4073;42.626;25.386;2023-02-14T10:05:42;98219.00;;;17.55;29.55
8061;BME280;4073;42.626;25.386;2023-02-14T10:08:36;98205.81;;;17.07;29.38
8061;BME280;4073;42.626;25.386;2023-02-14T10:11:12;98193.25;;;17.21;29.79
8061;BME280;4073;42.626;25.386;2023-02-14T10:16:51;98194.13;;;16.02;31.08
8061;BME280;4073;42.626;25.386;2023-02-14T10:19:10;98178.75;;;15.05;32.40
8061;BME280;4073;42.626;25.386;2023-02-14T10:21:51;98174.31;;;14.66;33.27
8061;BME280;4073;42.626;25.386;2023-02-14T10:26:44;98180.84;;;12.93;36.46
8061;BME280;4073;42.626;25.386;2023-02-14T10:29:16;98171.03;;;13.19;36.38
8061;BME280;4073;42.626;25.386;2023-02-14T10:37:13;98164.13;;;13.53;36.06
8061;BME280;4073;42.626;25.386;2023-02-14T10:50:51;98162.28;;;13.83;35.56
8061;BME280;4073;42.626;25.386;2023-02-14T10:53:26;98155.53;;;14.06;34.44
8061;BME280;4073;42.626;25.386;2023-02-14T10:58:26;98151.38;;;14.88;33.76
8061;BME280;4073;42.626;25.386;2023-02-14T11:03:26;98159.84;;;14.37;33.04
8061;BME280;4073;42.626;25.386;2023-02-14T11:05:52;98170.50;;;14.77;32.94
8061;BME280;4073;42.626;25.386;2023-02-14T11:08:38;98164.06;;;14.78;32.35
8061;BME280;4073;42.626;25.386;2023-02-14T11:14:31;98159.22;;;14.70;32.88
8061;BME280;4073;42.626;25.386;2023-02-14T11:16:58;98164.41;;;13.91;33.60
8061;BME280;4073;42.626;25.386;2023-02-14T11:19:30;98156.63;;;14.05;34.61
8061;BME280;4073;42.626;25.386;2023-02-14T11:21:57;98142.91;;;13.66;34.51
8061;BME280;4073;42.626;25.386;2023-02-14T11:26:58;98153.91;;;12.78;36.76
8061;BME280;4073;42.626;25.386;2023-02-14T11:29:32;98132.91;;;12.65;36.97
8061;BME280;4073;42.626;25.386;2023-02-14T11:32:13;98140.28;;;12.33;37.62
8061;BME280;4073;42.626;25.386;2023-02-14T11:34:44;98126.34;;;11.94;38.50
8061;BME280;4073;42.626;25.386;2023-02-14T11:39:52;98118.59;;;11.40;39.96
8061;BME280;4073;42.626;25.386;2023-02-14T11:45:04;98117.09;;;11.49;40.29
8061;BME280;4073;42.626;25.386;2023-02-14T11:47:32;98116.91;;;11.60;40.36
8061;BME280;4073;42.626;25.386;2023-02-14T11:50:03;98104.31;;;11.29;40.42
8061;BME280;4073;42.626;25.386;2023-02-14T11:52:31;98122.84;;;11.09;41.07
8061;BME280;4073;42.626;25.386;2023-02-14T11:54:58;98108.88;;;11.02;41.88
8061;BME280;4073;42.626;25.386;2023-02-14T11:57:30;98103.84;;;10.84;42.99
8061;BME280;4073;42.626;25.386;2023-02-14T11:59:58;98110.81;;;10.85;42.74
8061;BME280;4073;42.626;25.386;2023-02-14T12:02:40;98115.31;;;11.06;43.07
8061;BME280;4073;42.626;25.386;2023-02-14T12:07:43;98098.72;;;11.31;42.29
8061;BME280;4073;42.626;25.386;2023-02-14T12:15:58;98091.03;;;10.65;43.58
8061;BME280;4073;42.626;25.386;2023-02-14T12:18:48;98077.31;;;10.34;43.70
8061;BME280;4073;42.626;25.386;2023-02-14T12:21:42;98084.31;;;10.40;44.81
8061;BME280;4073;42.626;25.386;2023-02-14T12:27:27;98081.47;;;10.69;43.73
8061;BME280;4073;42.626;25.386;2023-02-14T12:30:03;98072.97;;;10.50;43.99
8061;BME280;4073;42.626;25.386;2023-02-14T12:32:33;98059.28;;;10.46;44.62
8061;BME280;4073;42.626;25.386;2023-02-14T12:35:15;98061.81;;;10.58;44.29
8061;BME280;4073;42.626;25.386;2023-02-14T12:37:54;98063.97;;;10.34;44.55
8061;BME280;4073;42.626;25.386;2023-02-14T12:46:02;98062.81;;;9.92;46.06
8061;BME280;4073;42.626;25.386;2023-02-14T12:51:28;98071.16;;;9.96;46.42
8061;BME280;4073;42.626;25.386;2023-02-14T12:56:32;98070.78;;;10.25;46.16
8061;BME280;4073;42.626;25.386;2023-02-14T13:04:37;98080.53;;;9.98;48.10
8061;BME280;4073;42.626;25.386;2023-02-14T13:19:08;98068.50;;;9.30;51.86
8061;BME280;4073;42.626;25.386;2023-02-14T13:21:36;98079.09;;;8.97;53.74
8061;BME280;4073;42.626;25.386;2023-02-14T13:24:16;98062.16;;;9.03;53.80
8061;BME280;4073;42.626;25.386;2023-02-14T13:26:46;98068.06;;;9.05;53.36
8061;BME280;4073;42.626;25.386;2023-02-14T13:29:17;98077.25;;;8.97;53.27
8061;BME280;4073;42.626;25.386;2023-02-14T13:31:44;98065.69;;;8.92;53.31
8061;BME280;4073;42.626;25.386;2023-02-14T13:36:38;98062.66;;;9.16;52.53
8061;BME280;4073;42.626;25.386;2023-02-14T13:39:04;98079.44;;;9.00;53.97
8061;BME280;4073;42.626;25.386;2023-02-14T13:41:31;98076.88;;;8.77;54.25
8061;BME280;4073;42.626;25.386;2023-02-14T13:51:43;98061.13;;;8.76;53.91
8061;BME280;4073;42.626;25.386;2023-02-14T14:02:46;98049.66;;;8.36;54.59
8061;BME280;4073;42.626;25.386;2023-02-14T14:18:47;98052.84;;;8.10;53.79
8061;BME280;4073;42.626;25.386;2023-02-14T14:21:24;98039.16;;;8.18;54.50
8061;BME280;4073;42.626;25.386;2023-02-14T14:31:57;98033.59;;;8.07;53.87
8061;BME280;4073;42.626;25.386;2023-02-14T14:34:25;98043.94;;;7.92;54.78
8061;BME280;4073;42.626;25.386;2023-02-14T14:37:06;98041.97;;;7.99;54.85
8061;BME280;4073;42.626;25.386;2023-02-14T14:39:34;98044.97;;;7.91;54.87
8061;BME280;4073;42.626;25.386;2023-02-14T14:42:13;98055.75;;;7.96;55.16
8061;BME280;4073;42.626;25.386;2023-02-14T14:44:49;98050.66;;;7.95;54.57
8061;BME280;4073;42.626;25.386;2023-02-14T14:47:19;98065.13;;;7.87;55.81
8061;BME280;4073;42.626;25.386;2023-02-14T14:49:46;98076.94;;;7.80;55.79
8061;BME280;4073;42.626;25.386;2023-02-14T14:52:33;98064.09;;;7.77;56.28
8061;BME280;4073;42.626;25.386;2023-02-14T14:54:59;98061.66;;;7.75;56.03
8061;BME280;4073;42.626;25.386;2023-02-14T14:57:26;98061.31;;;7.72;55.73
8061;BME280;4073;42.626;25.386;2023-02-14T15:00:16;98057.03;;;7.71;56.14
8061;BME280;4073;42.626;25.386;2023-02-14T15:03:15;98044.31;;;7.38;57.31
8061;BME280;4073;42.626;25.386;2023-02-14T15:05:40;98060.56;;;7.30;58.33
8061;BME280;4073;42.626;25.386;2023-02-14T15:10:38;98044.84;;;7.17;58.62
8061;BME280;4073;42.626;25.386;2023-02-14T15:13:04;98048.75;;;7.03;58.96
8061;BME280;4073;42.626;25.386;2023-02-14T15:15:49;98050.22;;;6.99;59.03
8061;BME280;4073;42.626;25.386;2023-02-14T15:18:16;98048.72;;;6.92;59.46
8061;BME280;4073;42.626;25.386;2023-02-14T15:20:48;98061.53;;;6.83;60.26
8061;BME280;4073;42.626;25.386;2023-02-14T15:23:23;98055.84;;;6.80;60.69
8061;BME280;4073;42.626;25.386;2023-02-14T15:25:49;98059.41;;;6.74;60.52
8061;BME280;4073;42.626;25.386;2023-02-14T15:28:30;98062.81;;;6.63;60.71
8061;BME280;4073;42.626;25.386;2023-02-14T15:30:58;98057.16;;;6.59;61.25
8061;BME280;4073;42.626;25.386;2023-02-14T15:33:24;98056.06;;;6.49;61.33
8061;BME280;4073;42.626;25.386;2023-02-14T15:35:51;98057.06;;;6.36;61.90
8061;BME280;4073;42.626;25.386;2023-02-14T15:38:19;98061.00;;;6.45;61.79
8061;BME280;4073;42.626;25.386;2023-02-14T15:40:47;98056.38;;;6.41;62.31
8061;BME280;4073;42.626;25.386;2023-02-14T15:43:22;98071.13;;;6.37;62.17
8061;BME280;4073;42.626;25.386;2023-02-14T15:45:51;98071.59;;;6.34;62.16
8061;BME280;4073;42.626;25.386;2023-02-14T15:48:29;98062.75;;;6.22;62.19
8061;BME280;4073;42.626;25.386;2023-02-14T15:50:58;98079.19;;;6.12;62.90
8061;BME280;4073;42.626;25.386;2023-02-14T15:53:44;98065.63;;;6.02;62.71
8061;BME280;4073;42.626;25.386;2023-02-14T15:58:44;98065.91;;;5.94;62.84
8061;BME280;4073;42.626;25.386;2023-02-14T16:01:11;98075.13;;;5.92;62.69
8061;BME280;4073;42.626;25.386;2023-02-14T16:03:39;98058.84;;;5.88;62.91
8061;BME280;4073;42.626;25.386;2023-02-14T16:07:02;98077.03;;;6.03;62.92
8061;BME280;4073;42.626;25.386;2023-02-14T16:09:27;98086.00;;;6.08;62.29
8061;BME280;4073;42.626;25.386;2023-02-14T16:11:53;98070.28;;;6.07;61.86
8061;BME280;4073;42.626;25.386;2023-02-14T16:14:29;98083.84;;;6.17;61.61